X  Luk Metar data     EKYT Aalborg Airport
Temperatur
24°C Temperatur
15°C Dugpunkt
57% Fugtighed



Vind
12 MPT
19 KM/T
5 M/S
10 KNOB



160°
SSØ
Nuværende forhold

Mest spredte skyer Mest spredte skyer
Tryk 1010.92 (hPa) - 29.85 (inHg)
Sigt 6.2 (mil) - 10 (km)
Lufthavn
Lufthavnskode EKYT

Lokation: Aalborg Airport
Afstand: 54 (mi)

Metar:
EKYT 010820Z AUTO 16010KT 9999 SCT190/// 24/15 Q1011

Tid: 01-07-2022 10:20 CEST